sensor_id;sensor_type;location;lat;lon;timestamp;P1;durP1;ratioP1;P2;durP2;ratioP2
38513;SDS011;24282;48.400;10.808;2022-08-18T00:00:42;6.47;;;5.13;;
38513;SDS011;24282;48.400;10.808;2022-08-18T00:03:09;6.18;;;4.85;;
38513;SDS011;24282;48.400;10.808;2022-08-18T00:05:35;8.00;;;5.72;;
38513;SDS011;24282;48.400;10.808;2022-08-18T00:08:02;7.25;;;4.78;;
38513;SDS011;24282;48.400;10.808;2022-08-18T00:10:29;5.95;;;4.63;;
38513;SDS011;24282;48.400;10.808;2022-08-18T00:12:55;7.50;;;5.10;;
38513;SDS011;24282;48.400;10.808;2022-08-18T00:15:21;7.00;;;4.82;;
38513;SDS011;24282;48.400;10.808;2022-08-18T00:17:47;7.35;;;5.63;;
38513;SDS011;24282;48.400;10.808;2022-08-18T00:20:14;7.43;;;5.60;;
38513;SDS011;24282;48.400;10.808;2022-08-18T00:22:43;6.45;;;5.32;;
38513;SDS011;24282;48.400;10.808;2022-08-18T00:25:10;6.63;;;5.53;;
38513;SDS011;24282;48.400;10.808;2022-08-18T00:27:37;7.82;;;5.55;;
38513;SDS011;24282;48.400;10.808;2022-08-18T00:30:06;6.50;;;5.28;;
38513;SDS011;24282;48.400;10.808;2022-08-18T00:32:43;6.30;;;5.35;;
38513;SDS011;24282;48.400;10.808;2022-08-18T00:35:14;7.30;;;5.93;;
38513;SDS011;24282;48.400;10.808;2022-08-18T00:37:51;6.13;;;5.43;;
38513;SDS011;24282;48.400;10.808;2022-08-18T00:40:20;9.13;;;5.65;;
38513;SDS011;24282;48.400;10.808;2022-08-18T00:42:52;7.22;;;5.60;;
38513;SDS011;24282;48.400;10.808;2022-08-18T00:45:28;7.80;;;5.53;;
38513;SDS011;24282;48.400;10.808;2022-08-18T00:48:01;7.07;;;5.05;;
38513;SDS011;24282;48.400;10.808;2022-08-18T00:50:34;6.60;;;5.18;;
38513;SDS011;24282;48.400;10.808;2022-08-18T00:53:11;8.45;;;5.80;;
38513;SDS011;24282;48.400;10.808;2022-08-18T00:55:54;7.47;;;5.35;;
38513;SDS011;24282;48.400;10.808;2022-08-18T00:58:45;6.53;;;5.88;;
38513;SDS011;24282;48.400;10.808;2022-08-18T01:03:44;7.20;;;5.88;;
38513;SDS011;24282;48.400;10.808;2022-08-18T01:06:24;8.63;;;5.53;;
38513;SDS011;24282;48.400;10.808;2022-08-18T01:08:56;7.18;;;5.90;;
38513;SDS011;24282;48.400;10.808;2022-08-18T01:11:23;7.75;;;5.88;;
38513;SDS011;24282;48.400;10.808;2022-08-18T01:13:49;7.10;;;6.40;;
38513;SDS011;24282;48.400;10.808;2022-08-18T01:16:16;7.43;;;5.72;;
38513;SDS011;24282;48.400;10.808;2022-08-18T01:19:01;7.50;;;6.10;;
38513;SDS011;24282;48.400;10.808;2022-08-18T01:21:47;8.77;;;5.43;;
38513;SDS011;24282;48.400;10.808;2022-08-18T01:24:23;6.97;;;6.10;;
38513;SDS011;24282;48.400;10.808;2022-08-18T01:27:25;8.48;;;5.97;;
38513;SDS011;24282;48.400;10.808;2022-08-18T01:29:53;7.93;;;6.38;;
38513;SDS011;24282;48.400;10.808;2022-08-18T01:32:20;8.30;;;5.70;;
38513;SDS011;24282;48.400;10.808;2022-08-18T01:34:48;7.18;;;6.30;;
38513;SDS011;24282;48.400;10.808;2022-08-18T01:37:19;6.78;;;6.07;;
38513;SDS011;24282;48.400;10.808;2022-08-18T01:39:47;7.05;;;6.35;;
38513;SDS011;24282;48.400;10.808;2022-08-18T01:42:14;8.25;;;6.78;;
38513;SDS011;24282;48.400;10.808;2022-08-18T01:44:43;6.97;;;6.18;;
38513;SDS011;24282;48.400;10.808;2022-08-18T01:47:11;7.10;;;6.40;;
38513;SDS011;24282;48.400;10.808;2022-08-18T01:49:37;6.82;;;6.18;;
38513;SDS011;24282;48.400;10.808;2022-08-18T01:52:07;8.55;;;6.72;;
38513;SDS011;24282;48.400;10.808;2022-08-18T01:54:34;7.20;;;6.50;;
38513;SDS011;24282;48.400;10.808;2022-08-18T01:59:29;7.05;;;6.05;;
38513;SDS011;24282;48.400;10.808;2022-08-18T02:01:54;8.23;;;7.43;;
38513;SDS011;24282;48.400;10.808;2022-08-18T02:04:25;8.00;;;7.20;;
38513;SDS011;24282;48.400;10.808;2022-08-18T02:06:55;7.70;;;6.97;;
38513;SDS011;24282;48.400;10.808;2022-08-18T02:09:21;7.80;;;7.00;;
38513;SDS011;24282;48.400;10.808;2022-08-18T02:11:47;9.23;;;8.20;;
38513;SDS011;24282;48.400;10.808;2022-08-18T02:14:13;7.53;;;6.82;;
38513;SDS011;24282;48.400;10.808;2022-08-18T02:16:38;7.85;;;7.05;;
38513;SDS011;24282;48.400;10.808;2022-08-18T02:19:04;8.55;;;7.40;;
38513;SDS011;24282;48.400;10.808;2022-08-18T02:21:30;7.80;;;7.00;;
38513;SDS011;24282;48.400;10.808;2022-08-18T02:23:56;7.38;;;6.68;;
38513;SDS011;24282;48.400;10.808;2022-08-18T02:26:22;8.18;;;7.32;;
38513;SDS011;24282;48.400;10.808;2022-08-18T02:28:48;8.38;;;7.25;;
38513;SDS011;24282;48.400;10.808;2022-08-18T02:31:15;7.72;;;6.65;;
38513;SDS011;24282;48.400;10.808;2022-08-18T02:33:43;8.82;;;6.80;;
38513;SDS011;24282;48.400;10.808;2022-08-18T02:36:10;7.80;;;7.00;;
38513;SDS011;24282;48.400;10.808;2022-08-18T02:38:36;8.35;;;7.55;;
38513;SDS011;24282;48.400;10.808;2022-08-18T02:41:03;10.30;;;8.23;;
38513;SDS011;24282;48.400;10.808;2022-08-18T02:43:33;10.45;;;9.32;;
38513;SDS011;24282;48.400;10.808;2022-08-18T02:46:00;9.93;;;9.02;;
38513;SDS011;24282;48.400;10.808;2022-08-18T02:48:26;10.75;;;9.65;;
38513;SDS011;24282;48.400;10.808;2022-08-18T02:53:33;10.55;;;9.32;;
38513;SDS011;24282;48.400;10.808;2022-08-18T02:56:10;11.23;;;9.95;;
38513;SDS011;24282;48.400;10.808;2022-08-18T02:58:57;10.07;;;9.07;;
38513;SDS011;24282;48.400;10.808;2022-08-18T03:01:25;11.80;;;8.70;;
38513;SDS011;24282;48.400;10.808;2022-08-18T03:03:54;11.68;;;10.48;;
38513;SDS011;24282;48.400;10.808;2022-08-18T03:06:21;12.23;;;10.90;;
38513;SDS011;24282;48.400;10.808;2022-08-18T03:08:48;11.55;;;10.38;;
38513;SDS011;24282;48.400;10.808;2022-08-18T03:11:16;12.43;;;11.23;;
38513;SDS011;24282;48.400;10.808;2022-08-18T03:13:43;11.20;;;10.10;;
38513;SDS011;24282;48.400;10.808;2022-08-18T03:16:09;10.48;;;9.38;;
38513;SDS011;24282;48.400;10.808;2022-08-18T03:18:35;10.90;;;9.90;;
38513;SDS011;24282;48.400;10.808;2022-08-18T03:21:05;10.55;;;9.45;;
38513;SDS011;24282;48.400;10.808;2022-08-18T03:23:33;10.43;;;9.32;;
38513;SDS011;24282;48.400;10.808;2022-08-18T03:26:00;10.32;;;9.35;;
38513;SDS011;24282;48.400;10.808;2022-08-18T03:28:26;11.32;;;10.20;;
38513;SDS011;24282;48.400;10.808;2022-08-18T03:30:53;10.77;;;9.68;;
38513;SDS011;24282;48.400;10.808;2022-08-18T03:33:20;12.73;;;9.90;;
38513;SDS011;24282;48.400;10.808;2022-08-18T03:35:46;10.18;;;9.18;;
38513;SDS011;24282;48.400;10.808;2022-08-18T03:38:11;10.27;;;9.38;;
38513;SDS011;24282;48.400;10.808;2022-08-18T03:40:37;9.73;;;8.77;;
38513;SDS011;24282;48.400;10.808;2022-08-18T03:43:04;10.35;;;9.35;;
38513;SDS011;24282;48.400;10.808;2022-08-18T03:45:31;9.30;;;7.80;;
38513;SDS011;24282;48.400;10.808;2022-08-18T03:47:58;8.90;;;8.00;;
38513;SDS011;24282;48.400;10.808;2022-08-18T03:50:25;8.95;;;7.82;;
38513;SDS011;24282;48.400;10.808;2022-08-18T03:52:52;8.65;;;7.85;;
38513;SDS011;24282;48.400;10.808;2022-08-18T03:55:19;8.07;;;7.32;;
38513;SDS011;24282;48.400;10.808;2022-08-18T03:57:45;7.43;;;6.72;;
38513;SDS011;24282;48.400;10.808;2022-08-18T04:00:12;9.05;;;7.22;;
38513;SDS011;24282;48.400;10.808;2022-08-18T04:02:38;8.18;;;7.38;;
38513;SDS011;24282;48.400;10.808;2022-08-18T04:05:04;10.50;;;8.52;;
38513;SDS011;24282;48.400;10.808;2022-08-18T04:07:31;9.13;;;7.53;;
38513;SDS011;24282;48.400;10.808;2022-08-18T04:09:56;7.90;;;7.00;;
38513;SDS011;24282;48.400;10.808;2022-08-18T04:12:22;7.00;;;6.15;;
38513;SDS011;24282;48.400;10.808;2022-08-18T04:14:48;11.13;;;6.90;;
38513;SDS011;24282;48.400;10.808;2022-08-18T04:17:19;7.10;;;6.40;;
38513;SDS011;24282;48.400;10.808;2022-08-18T04:19:52;7.82;;;7.00;;
38513;SDS011;24282;48.400;10.808;2022-08-18T04:22:19;7.78;;;6.97;;
38513;SDS011;24282;48.400;10.808;2022-08-18T04:24:44;10.27;;;9.13;;
38513;SDS011;24282;48.400;10.808;2022-08-18T04:27:10;10.70;;;9.60;;
38513;SDS011;24282;48.400;10.808;2022-08-18T04:29:36;9.38;;;7.43;;
38513;SDS011;24282;48.400;10.808;2022-08-18T04:32:02;7.28;;;6.47;;
38513;SDS011;24282;48.400;10.808;2022-08-18T04:34:29;9.40;;;7.22;;
38513;SDS011;24282;48.400;10.808;2022-08-18T04:36:57;9.10;;;7.93;;
38513;SDS011;24282;48.400;10.808;2022-08-18T04:39:23;7.38;;;6.70;;
38513;SDS011;24282;48.400;10.808;2022-08-18T04:41:50;7.03;;;6.32;;
38513;SDS011;24282;48.400;10.808;2022-08-18T04:44:16;7.70;;;7.00;;
38513;SDS011;24282;48.400;10.808;2022-08-18T04:46:47;7.47;;;6.78;;
38513;SDS011;24282;48.400;10.808;2022-08-18T04:49:16;9.00;;;7.45;;
38513;SDS011;24282;48.400;10.808;2022-08-18T04:51:47;7.95;;;7.15;;
38513;SDS011;24282;48.400;10.808;2022-08-18T04:54:33;9.27;;;8.38;;
38513;SDS011;24282;48.400;10.808;2022-08-18T04:59:36;7.50;;;6.75;;
38513;SDS011;24282;48.400;10.808;2022-08-18T05:02:04;7.05;;;6.40;;
38513;SDS011;24282;48.400;10.808;2022-08-18T05:04:31;9.80;;;7.40;;
38513;SDS011;24282;48.400;10.808;2022-08-18T05:06:59;7.97;;;7.10;;
38513;SDS011;24282;48.400;10.808;2022-08-18T05:09:25;9.10;;;7.70;;
38513;SDS011;24282;48.400;10.808;2022-08-18T05:11:50;9.40;;;8.45;;
38513;SDS011;24282;48.400;10.808;2022-08-18T05:14:17;8.45;;;7.65;;
38513;SDS011;24282;48.400;10.808;2022-08-18T05:16:43;8.38;;;7.57;;
38513;SDS011;24282;48.400;10.808;2022-08-18T05:19:10;8.10;;;6.75;;
38513;SDS011;24282;48.400;10.808;2022-08-18T05:21:36;8.40;;;7.32;;
38513;SDS011;24282;48.400;10.808;2022-08-18T05:24:06;8.32;;;6.32;;
38513;SDS011;24282;48.400;10.808;2022-08-18T05:26:33;7.38;;;6.68;;
38513;SDS011;24282;48.400;10.808;2022-08-18T05:29:00;8.60;;;7.20;;
38513;SDS011;24282;48.400;10.808;2022-08-18T05:31:27;8.02;;;7.22;;
38513;SDS011;24282;48.400;10.808;2022-08-18T05:33:53;6.65;;;5.88;;
38513;SDS011;24282;48.400;10.808;2022-08-18T05:41:25;7.85;;;7.15;;
38513;SDS011;24282;48.400;10.808;2022-08-18T05:44:00;7.32;;;6.53;;
38513;SDS011;24282;48.400;10.808;2022-08-18T05:49:04;8.30;;;7.50;;
38513;SDS011;24282;48.400;10.808;2022-08-18T05:51:33;8.40;;;7.55;;
38513;SDS011;24282;48.400;10.808;2022-08-18T05:54:10;8.20;;;7.40;;
38513;SDS011;24282;48.400;10.808;2022-08-18T05:56:56;6.80;;;6.10;;
38513;SDS011;24282;48.400;10.808;2022-08-18T05:59:27;7.75;;;6.82;;
38513;SDS011;24282;48.400;10.808;2022-08-18T06:02:05;7.40;;;6.55;;
38513;SDS011;24282;48.400;10.808;2022-08-18T06:04:42;7.95;;;6.50;;
38513;SDS011;24282;48.400;10.808;2022-08-18T06:07:16;7.68;;;6.90;;
38513;SDS011;24282;48.400;10.808;2022-08-18T06:09:49;8.35;;;7.43;;
38513;SDS011;24282;48.400;10.808;2022-08-18T06:12:27;7.70;;;7.00;;
38513;SDS011;24282;48.400;10.808;2022-08-18T06:15:13;8.75;;;7.13;;
38513;SDS011;24282;48.400;10.808;2022-08-18T06:17:44;8.65;;;6.82;;
38513;SDS011;24282;48.400;10.808;2022-08-18T06:23:19;8.40;;;7.25;;
38513;SDS011;24282;48.400;10.808;2022-08-18T06:26:53;7.03;;;6.30;;
38513;SDS011;24282;48.400;10.808;2022-08-18T06:37:44;8.43;;;7.63;;
38513;SDS011;24282;48.400;10.808;2022-08-18T06:40:47;9.77;;;8.77;;
38513;SDS011;24282;48.400;10.808;2022-08-18T06:43:14;9.50;;;8.55;;
38513;SDS011;24282;48.400;10.808;2022-08-18T06:45:44;9.52;;;8.60;;
38513;SDS011;24282;48.400;10.808;2022-08-18T06:51:02;10.02;;;8.88;;
38513;SDS011;24282;48.400;10.808;2022-08-18T06:58:47;9.43;;;8.63;;
38513;SDS011;24282;48.400;10.808;2022-08-18T07:01:12;11.05;;;9.95;;
38513;SDS011;24282;48.400;10.808;2022-08-18T07:03:43;10.32;;;9.32;;
38513;SDS011;24282;48.400;10.808;2022-08-18T07:08:45;8.93;;;8.02;;
38513;SDS011;24282;48.400;10.808;2022-08-18T07:11:17;10.25;;;9.25;;
38513;SDS011;24282;48.400;10.808;2022-08-18T07:13:46;12.75;;;11.48;;
38513;SDS011;24282;48.400;10.808;2022-08-18T07:16:15;10.18;;;9.20;;
38513;SDS011;24282;48.400;10.808;2022-08-18T07:18:44;8.90;;;7.88;;
38513;SDS011;24282;48.400;10.808;2022-08-18T07:21:22;10.63;;;9.63;;
38513;SDS011;24282;48.400;10.808;2022-08-18T07:23:58;10.93;;;9.88;;
38513;SDS011;24282;48.400;10.808;2022-08-18T07:26:57;12.65;;;11.45;;
38513;SDS011;24282;48.400;10.808;2022-08-18T07:29:33;10.18;;;9.23;;
38513;SDS011;24282;48.400;10.808;2022-08-18T07:32:24;11.00;;;9.95;;
38513;SDS011;24282;48.400;10.808;2022-08-18T07:35:05;10.63;;;9.63;;
38513;SDS011;24282;48.400;10.808;2022-08-18T07:37:42;10.63;;;9.43;;
38513;SDS011;24282;48.400;10.808;2022-08-18T07:40:21;11.32;;;10.13;;
38513;SDS011;24282;48.400;10.808;2022-08-18T07:45:47;13.18;;;11.88;;
38513;SDS011;24282;48.400;10.808;2022-08-18T07:48:20;12.98;;;11.68;;
38513;SDS011;24282;48.400;10.808;2022-08-18T07:56:18;11.05;;;9.95;;
38513;SDS011;24282;48.400;10.808;2022-08-18T08:04:14;11.52;;;10.23;;
38513;SDS011;24282;48.400;10.808;2022-08-18T08:06:51;10.57;;;9.65;;
38513;SDS011;24282;48.400;10.808;2022-08-18T08:12:47;12.40;;;11.07;;
38513;SDS011;24282;48.400;10.808;2022-08-18T08:15:14;9.95;;;9.02;;
38513;SDS011;24282;48.400;10.808;2022-08-18T08:31:57;11.00;;;9.95;;
38513;SDS011;24282;48.400;10.808;2022-08-18T08:34:32;10.35;;;8.80;;
38513;SDS011;24282;48.400;10.808;2022-08-18T08:37:14;11.23;;;9.73;;
38513;SDS011;24282;48.400;10.808;2022-08-18T08:40:04;10.60;;;9.63;;
38513;SDS011;24282;48.400;10.808;2022-08-18T08:45:25;9.00;;;8.07;;
38513;SDS011;24282;48.400;10.808;2022-08-18T08:50:32;10.80;;;9.23;;
38513;SDS011;24282;48.400;10.808;2022-08-18T08:55:50;9.48;;;8.43;;
38513;SDS011;24282;48.400;10.808;2022-08-18T08:58:26;10.38;;;9.38;;
38513;SDS011;24282;48.400;10.808;2022-08-18T09:01:05;8.35;;;7.55;;
38513;SDS011;24282;48.400;10.808;2022-08-18T09:03:44;9.25;;;8.35;;
38513;SDS011;24282;48.400;10.808;2022-08-18T09:10:30;8.32;;;7.32;;
38513;SDS011;24282;48.400;10.808;2022-08-18T09:12:46;7.57;;;6.82;;
38513;SDS011;24282;48.400;10.808;2022-08-18T09:18:28;7.28;;;6.50;;
38513;SDS011;24282;48.400;10.808;2022-08-18T09:21:04;7.25;;;6.55;;
38513;SDS011;24282;48.400;10.808;2022-08-18T09:23:50;6.82;;;6.20;;
38513;SDS011;24282;48.400;10.808;2022-08-18T09:37:22;7.97;;;6.13;;
38513;SDS011;24282;48.400;10.808;2022-08-18T09:40:14;6.93;;;6.22;;
38513;SDS011;24282;48.400;10.808;2022-08-18T09:43:06;7.65;;;6.10;;
38513;SDS011;24282;48.400;10.808;2022-08-18T09:45:39;7.05;;;6.20;;
38513;SDS011;24282;48.400;10.808;2022-08-18T09:50:50;6.55;;;5.40;;
38513;SDS011;24282;48.400;10.808;2022-08-18T09:56:01;7.30;;;5.35;;
38513;SDS011;24282;48.400;10.808;2022-08-18T10:06:38;5.72;;;4.85;;
38513;SDS011;24282;48.400;10.808;2022-08-18T10:09:12;6.63;;;5.90;;
38513;SDS011;24282;48.400;10.808;2022-08-18T10:23:08;8.55;;;5.82;;
38513;SDS011;24282;48.400;10.808;2022-08-18T10:25:41;8.73;;;6.32;;
38513;SDS011;24282;48.400;10.808;2022-08-18T10:28:52;7.63;;;5.82;;
38513;SDS011;24282;48.400;10.808;2022-08-18T10:31:17;8.75;;;7.25;;
38513;SDS011;24282;48.400;10.808;2022-08-18T10:44:41;7.07;;;6.25;;
38513;SDS011;24282;48.400;10.808;2022-08-18T10:47:09;5.95;;;5.35;;
38513;SDS011;24282;48.400;10.808;2022-08-18T10:49:49;7.38;;;5.93;;
38513;SDS011;24282;48.400;10.808;2022-08-18T10:52:32;6.57;;;5.43;;
38513;SDS011;24282;48.400;10.808;2022-08-18T11:00:50;9.90;;;8.90;;
38513;SDS011;24282;48.400;10.808;2022-08-18T11:05:59;7.68;;;6.97;;
38513;SDS011;24282;48.400;10.808;2022-08-18T11:08:37;6.68;;;5.82;;
38513;SDS011;24282;48.400;10.808;2022-08-18T11:11:10;6.43;;;5.18;;
38513;SDS011;24282;48.400;10.808;2022-08-18T11:18:50;6.97;;;5.83;;
38513;SDS011;24282;48.400;10.808;2022-08-18T11:26:32;7.68;;;6.35;;
38513;SDS011;24282;48.400;10.808;2022-08-18T11:29:15;10.82;;;5.95;;
38513;SDS011;24282;48.400;10.808;2022-08-18T11:31:57;6.38;;;5.78;;
38513;SDS011;24282;48.400;10.808;2022-08-18T12:14:19;6.30;;;5.47;;
38513;SDS011;24282;48.400;10.808;2022-08-18T12:16:47;5.75;;;5.15;;
38513;SDS011;24282;48.400;10.808;2022-08-18T12:19:13;5.80;;;5.22;;
38513;SDS011;24282;48.400;10.808;2022-08-18T12:21:44;5.30;;;4.80;;
38513;SDS011;24282;48.400;10.808;2022-08-18T12:24:29;6.25;;;5.10;;
38513;SDS011;24282;48.400;10.808;2022-08-18T12:26:56;6.93;;;4.97;;
38513;SDS011;24282;48.400;10.808;2022-08-18T12:29:23;5.80;;;4.90;;
38513;SDS011;24282;48.400;10.808;2022-08-18T12:31:51;6.20;;;5.13;;
38513;SDS011;24282;48.400;10.808;2022-08-18T12:34:19;5.25;;;4.75;;
38513;SDS011;24282;48.400;10.808;2022-08-18T12:36:52;6.18;;;4.85;;
38513;SDS011;24282;48.400;10.808;2022-08-18T12:39:20;5.68;;;5.07;;
38513;SDS011;24282;48.400;10.808;2022-08-18T12:41:46;5.97;;;4.93;;
38513;SDS011;24282;48.400;10.808;2022-08-18T12:44:12;6.13;;;5.53;;
38513;SDS011;24282;48.400;10.808;2022-08-18T12:46:38;4.47;;;4.03;;
38513;SDS011;24282;48.400;10.808;2022-08-18T12:49:04;5.22;;;4.55;;
38513;SDS011;24282;48.400;10.808;2022-08-18T12:51:33;6.50;;;5.90;;
38513;SDS011;24282;48.400;10.808;2022-08-18T12:53:58;5.82;;;5.22;;
38513;SDS011;24282;48.400;10.808;2022-08-18T12:56:25;6.13;;;5.03;;
38513;SDS011;24282;48.400;10.808;2022-08-18T12:58:54;6.65;;;5.72;;
38513;SDS011;24282;48.400;10.808;2022-08-18T13:01:21;5.40;;;4.60;;
38513;SDS011;24282;48.400;10.808;2022-08-18T13:03:51;7.00;;;5.70;;
38513;SDS011;24282;48.400;10.808;2022-08-18T13:06:19;5.45;;;4.72;;
38513;SDS011;24282;48.400;10.808;2022-08-18T13:08:47;5.57;;;5.03;;
38513;SDS011;24282;48.400;10.808;2022-08-18T13:11:14;7.13;;;4.45;;
38513;SDS011;24282;48.400;10.808;2022-08-18T13:13:40;6.72;;;5.03;;
38513;SDS011;24282;48.400;10.808;2022-08-18T13:16:06;5.47;;;4.50;;
38513;SDS011;24282;48.400;10.808;2022-08-18T13:18:33;6.60;;;5.63;;
38513;SDS011;24282;48.400;10.808;2022-08-18T13:20:59;5.95;;;5.38;;
38513;SDS011;24282;48.400;10.808;2022-08-18T13:23:27;6.15;;;4.68;;
38513;SDS011;24282;48.400;10.808;2022-08-18T13:25:54;6.60;;;5.53;;
38513;SDS011;24282;48.400;10.808;2022-08-18T13:28:22;8.18;;;5.82;;
38513;SDS011;24282;48.400;10.808;2022-08-18T13:30:48;6.35;;;4.90;;
38513;SDS011;24282;48.400;10.808;2022-08-18T13:33:15;6.40;;;5.32;;
38513;SDS011;24282;48.400;10.808;2022-08-18T13:35:42;6.20;;;5.22;;
38513;SDS011;24282;48.400;10.808;2022-08-18T13:38:09;9.45;;;5.93;;
38513;SDS011;24282;48.400;10.808;2022-08-18T13:40:39;5.28;;;4.20;;
38513;SDS011;24282;48.400;10.808;2022-08-18T13:43:06;6.18;;;4.75;;
38513;SDS011;24282;48.400;10.808;2022-08-18T13:45:33;5.00;;;4.40;;
38513;SDS011;24282;48.400;10.808;2022-08-18T13:47:59;4.80;;;4.30;;
38513;SDS011;24282;48.400;10.808;2022-08-18T13:50:25;8.18;;;5.10;;
38513;SDS011;24282;48.400;10.808;2022-08-18T13:52:51;4.80;;;4.30;;
38513;SDS011;24282;48.400;10.808;2022-08-18T13:55:18;4.85;;;4.35;;
38513;SDS011;24282;48.400;10.808;2022-08-18T13:57:44;5.38;;;4.55;;
38513;SDS011;24282;48.400;10.808;2022-08-18T14:00:15;9.32;;;5.32;;
38513;SDS011;24282;48.400;10.808;2022-08-18T14:02:44;6.40;;;5.35;;
38513;SDS011;24282;48.400;10.808;2022-08-18T14:05:12;8.68;;;5.43;;
38513;SDS011;24282;48.400;10.808;2022-08-18T14:07:40;6.53;;;5.40;;
38513;SDS011;24282;48.400;10.808;2022-08-18T14:10:06;7.85;;;6.15;;
38513;SDS011;24282;48.400;10.808;2022-08-18T14:12:34;6.25;;;5.65;;
38513;SDS011;24282;48.400;10.808;2022-08-18T14:15:02;6.25;;;4.75;;
38513;SDS011;24282;48.400;10.808;2022-08-18T14:17:31;4.90;;;4.40;;
38513;SDS011;24282;48.400;10.808;2022-08-18T14:19:58;6.57;;;4.65;;
38513;SDS011;24282;48.400;10.808;2022-08-18T14:22:42;6.50;;;4.53;;
38513;SDS011;24282;48.400;10.808;2022-08-18T14:25:27;4.95;;;4.43;;
38513;SDS011;24282;48.400;10.808;2022-08-18T14:28:16;7.47;;;5.35;;
38513;SDS011;24282;48.400;10.808;2022-08-18T14:30:44;5.10;;;4.53;;
38513;SDS011;24282;48.400;10.808;2022-08-18T14:33:11;6.07;;;4.50;;
38513;SDS011;24282;48.400;10.808;2022-08-18T14:35:39;5.40;;;4.50;;
38513;SDS011;24282;48.400;10.808;2022-08-18T14:38:05;6.47;;;4.53;;
38513;SDS011;24282;48.400;10.808;2022-08-18T14:40:32;4.70;;;4.13;;
38513;SDS011;24282;48.400;10.808;2022-08-18T14:43:00;7.57;;;4.40;;
38513;SDS011;24282;48.400;10.808;2022-08-18T14:45:26;10.50;;;5.10;;
38513;SDS011;24282;48.400;10.808;2022-08-18T14:47:53;14.52;;;5.45;;
38513;SDS011;24282;48.400;10.808;2022-08-18T14:50:19;11.45;;;4.82;;
38513;SDS011;24282;48.400;10.808;2022-08-18T14:52:46;5.28;;;4.72;;
38513;SDS011;24282;48.400;10.808;2022-08-18T14:55:12;8.23;;;4.90;;
38513;SDS011;24282;48.400;10.808;2022-08-18T14:57:40;6.05;;;4.63;;
38513;SDS011;24282;48.400;10.808;2022-08-18T15:00:07;5.63;;;5.03;;
38513;SDS011;24282;48.400;10.808;2022-08-18T15:02:37;6.15;;;4.72;;
38513;SDS011;24282;48.400;10.808;2022-08-18T15:05:04;6.57;;;4.55;;
38513;SDS011;24282;48.400;10.808;2022-08-18T15:07:33;5.95;;;4.80;;
38513;SDS011;24282;48.400;10.808;2022-08-18T15:10:03;9.05;;;5.38;;
38513;SDS011;24282;48.400;10.808;2022-08-18T15:12:33;6.18;;;5.25;;
38513;SDS011;24282;48.400;10.808;2022-08-18T15:14:59;4.97;;;4.47;;
38513;SDS011;24282;48.400;10.808;2022-08-18T15:17:26;5.82;;;4.80;;
38513;SDS011;24282;48.400;10.808;2022-08-18T15:19:52;5.13;;;4.63;;
38513;SDS011;24282;48.400;10.808;2022-08-18T15:22:18;5.32;;;4.82;;
38513;SDS011;24282;48.400;10.808;2022-08-18T15:25:03;6.53;;;5.10;;
38513;SDS011;24282;48.400;10.808;2022-08-18T15:27:49;7.20;;;4.95;;
38513;SDS011;24282;48.400;10.808;2022-08-18T15:30:15;6.13;;;5.53;;
38513;SDS011;24282;48.400;10.808;2022-08-18T15:32:42;8.88;;;6.35;;
38513;SDS011;24282;48.400;10.808;2022-08-18T15:35:09;8.38;;;5.85;;
38513;SDS011;24282;48.400;10.808;2022-08-18T15:37:36;7.70;;;5.60;;
38513;SDS011;24282;48.400;10.808;2022-08-18T15:40:12;6.30;;;5.10;;
38513;SDS011;24282;48.400;10.808;2022-08-18T15:42:43;8.23;;;5.75;;
38513;SDS011;24282;48.400;10.808;2022-08-18T15:45:14;7.22;;;5.95;;
38513;SDS011;24282;48.400;10.808;2022-08-18T15:47:43;13.20;;;7.47;;
38513;SDS011;24282;48.400;10.808;2022-08-18T15:50:13;6.95;;;6.25;;
38513;SDS011;24282;48.400;10.808;2022-08-18T15:55:11;5.88;;;5.28;;
38513;SDS011;24282;48.400;10.808;2022-08-18T15:57:37;6.78;;;6.07;;
38513;SDS011;24282;48.400;10.808;2022-08-18T16:00:03;7.60;;;6.80;;
38513;SDS011;24282;48.400;10.808;2022-08-18T16:02:37;6.57;;;5.93;;
38513;SDS011;24282;48.400;10.808;2022-08-18T16:05:04;6.07;;;5.47;;
38513;SDS011;24282;48.400;10.808;2022-08-18T16:07:31;9.48;;;6.90;;
38513;SDS011;24282;48.400;10.808;2022-08-18T16:09:57;7.78;;;6.35;;
38513;SDS011;24282;48.400;10.808;2022-08-18T16:12:22;6.78;;;6.10;;
38513;SDS011;24282;48.400;10.808;2022-08-18T16:14:48;7.00;;;6.30;;
38513;SDS011;24282;48.400;10.808;2022-08-18T16:17:17;7.18;;;6.50;;
38513;SDS011;24282;48.400;10.808;2022-08-18T16:19:45;8.13;;;6.63;;
38513;SDS011;24282;48.400;10.808;2022-08-18T16:22:10;7.28;;;6.30;;
38513;SDS011;24282;48.400;10.808;2022-08-18T16:24:37;8.15;;;5.78;;
38513;SDS011;24282;48.400;10.808;2022-08-18T16:27:03;6.90;;;6.20;;
38513;SDS011;24282;48.400;10.808;2022-08-18T16:29:31;7.07;;;6.38;;
38513;SDS011;24282;48.400;10.808;2022-08-18T16:31:57;6.75;;;6.03;;
38513;SDS011;24282;48.400;10.808;2022-08-18T16:34:23;8.18;;;6.20;;
38513;SDS011;24282;48.400;10.808;2022-08-18T16:36:51;6.88;;;5.78;;
38513;SDS011;24282;48.400;10.808;2022-08-18T16:39:17;7.05;;;6.25;;
38513;SDS011;24282;48.400;10.808;2022-08-18T16:41:42;7.05;;;6.22;;
38513;SDS011;24282;48.400;10.808;2022-08-18T16:44:08;6.65;;;6.03;;
38513;SDS011;24282;48.400;10.808;2022-08-18T16:46:34;5.95;;;5.32;;
38513;SDS011;24282;48.400;10.808;2022-08-18T16:49:00;12.02;;;5.80;;
38513;SDS011;24282;48.400;10.808;2022-08-18T16:51:30;6.40;;;5.70;;
38513;SDS011;24282;48.400;10.808;2022-08-18T16:53:56;6.63;;;5.57;;
38513;SDS011;24282;48.400;10.808;2022-08-18T16:56:24;9.57;;;5.63;;
38513;SDS011;24282;48.400;10.808;2022-08-18T16:58:51;7.55;;;5.72;;
38513;SDS011;24282;48.400;10.808;2022-08-18T17:01:36;6.95;;;5.78;;
38513;SDS011;24282;48.400;10.808;2022-08-18T17:04:23;7.88;;;6.15;;
38513;SDS011;24282;48.400;10.808;2022-08-18T17:06:52;13.38;;;10.00;;
38513;SDS011;24282;48.400;10.808;2022-08-18T17:09:20;14.45;;;9.25;;
38513;SDS011;24282;48.400;10.808;2022-08-18T17:11:48;13.68;;;10.82;;
38513;SDS011;24282;48.400;10.808;2022-08-18T17:14:15;12.82;;;9.02;;
38513;SDS011;24282;48.400;10.808;2022-08-18T17:16:42;10.70;;;9.63;;
38513;SDS011;24282;48.400;10.808;2022-08-18T17:19:10;10.55;;;9.52;;
38513;SDS011;24282;48.400;10.808;2022-08-18T17:21:36;12.27;;;8.77;;
38513;SDS011;24282;48.400;10.808;2022-08-18T17:24:04;13.20;;;11.10;;
38513;SDS011;24282;48.400;10.808;2022-08-18T17:26:35;12.50;;;10.40;;
38513;SDS011;24282;48.400;10.808;2022-08-18T17:31:43;11.88;;;9.80;;
38513;SDS011;24282;48.400;10.808;2022-08-18T17:34:37;12.85;;;10.80;;
38513;SDS011;24282;48.400;10.808;2022-08-18T17:37:09;13.27;;;11.88;;
38513;SDS011;24282;48.400;10.808;2022-08-18T17:40:04;13.75;;;12.25;;
38513;SDS011;24282;48.400;10.808;2022-08-18T17:42:37;14.02;;;12.55;;
38513;SDS011;24282;48.400;10.808;2022-08-18T17:45:05;12.50;;;11.13;;
38513;SDS011;24282;48.400;10.808;2022-08-18T17:50:04;12.57;;;11.25;;
38513;SDS011;24282;48.400;10.808;2022-08-18T17:52:52;12.38;;;11.07;;
38513;SDS011;24282;48.400;10.808;2022-08-18T17:55:30;12.40;;;11.20;;
38513;SDS011;24282;48.400;10.808;2022-08-18T17:58:08;13.52;;;12.10;;
38513;SDS011;24282;48.400;10.808;2022-08-18T18:00:42;13.40;;;12.00;;
38513;SDS011;24282;48.400;10.808;2022-08-18T18:03:09;13.82;;;12.27;;
38513;SDS011;24282;48.400;10.808;2022-08-18T18:05:36;14.32;;;12.90;;
38513;SDS011;24282;48.400;10.808;2022-08-18T18:08:05;12.68;;;11.55;;
38513;SDS011;24282;48.400;10.808;2022-08-18T18:15:51;12.63;;;11.35;;